createdAt,value
2018-12-22T00:02:28.654Z,0.80
2018-12-22T00:05:32.020Z,0.60
2018-12-22T00:08:35.167Z,1.00
2018-12-22T00:11:38.196Z,0.70
2018-12-22T00:14:41.372Z,0.85
2018-12-22T00:17:44.509Z,0.80
2018-12-22T00:20:47.600Z,0.90
2018-12-22T00:23:50.677Z,1.02
2018-12-22T00:26:53.659Z,0.78
2018-12-22T00:29:56.700Z,0.90
2018-12-22T00:32:59.998Z,0.90
2018-12-22T00:36:03.148Z,0.88
2018-12-22T00:39:07.206Z,0.80
2018-12-22T00:42:10.311Z,0.72
2018-12-22T00:45:13.372Z,1.00
2018-12-22T00:48:16.480Z,0.90
2018-12-22T00:51:19.740Z,0.95
2018-12-22T00:54:22.699Z,0.88
2018-12-22T00:57:25.688Z,0.88
2018-12-22T01:00:31.175Z,0.98
2018-12-22T01:03:35.595Z,0.90
2018-12-22T01:06:38.550Z,0.93
2018-12-22T01:09:41.659Z,0.80
2018-12-22T01:12:44.633Z,0.75
2018-12-22T01:15:47.570Z,0.72
2018-12-22T01:18:51.529Z,0.80
2018-12-22T01:21:54.469Z,0.80
2018-12-22T01:24:58.527Z,0.98
2018-12-22T01:28:01.620Z,1.10
2018-12-22T01:31:04.828Z,0.80
2018-12-22T01:34:09.989Z,0.90
2018-12-22T01:37:13.992Z,0.78
2018-12-22T01:40:17.219Z,0.90
2018-12-22T01:43:20.262Z,0.78
2018-12-22T01:46:23.248Z,0.98
2018-12-22T01:49:26.652Z,0.80
2018-12-22T01:52:29.833Z,1.15
2018-12-22T01:55:32.777Z,0.80
2018-12-22T01:58:36.856Z,0.60
2018-12-22T02:01:41.070Z,0.65
2018-12-22T02:04:44.046Z,0.90
2018-12-22T02:07:48.063Z,0.75
2018-12-22T02:10:51.051Z,0.90
2018-12-22T02:13:54.140Z,0.82
2018-12-22T02:16:57.244Z,0.90
2018-12-22T02:20:00.235Z,0.85
2018-12-22T02:23:03.308Z,1.00
2018-12-22T02:26:06.306Z,0.70
2018-12-22T02:29:09.447Z,0.90
2018-12-22T02:32:12.480Z,0.70
2018-12-22T02:35:15.535Z,0.70
2018-12-22T02:38:18.616Z,0.72
2018-12-22T02:41:21.958Z,0.85
2018-12-22T02:44:24.950Z,0.98
2018-12-22T02:47:27.951Z,0.98
2018-12-22T02:50:31.027Z,0.95
2018-12-22T02:53:34.083Z,0.95
2018-12-22T02:56:37.357Z,1.05
2018-12-22T02:59:40.714Z,0.90
2018-12-22T03:02:48.837Z,1.30
2018-12-22T03:05:51.808Z,1.00
2018-12-22T03:08:54.915Z,0.90
2018-12-22T03:11:57.894Z,0.80
2018-12-22T03:15:00.988Z,0.93
2018-12-22T03:18:03.951Z,1.10
2018-12-22T03:21:07.180Z,1.15
2018-12-22T03:24:10.259Z,1.10
2018-12-22T03:27:14.394Z,0.90
2018-12-22T03:30:17.449Z,0.88
2018-12-22T03:33:20.622Z,0.95
2018-12-22T03:36:23.915Z,0.80
2018-12-22T03:39:27.227Z,1.05
2018-12-22T03:42:31.519Z,0.95
2018-12-22T03:45:34.762Z,1.17
2018-12-22T03:48:37.855Z,1.15
2018-12-22T03:51:41.039Z,1.10
2018-12-22T03:54:45.266Z,1.00
2018-12-22T03:57:48.359Z,1.00
2018-12-22T04:00:51.495Z,0.98
2018-12-22T04:03:54.658Z,1.10
2018-12-22T04:06:59.958Z,1.10
2018-12-22T04:10:03.037Z,1.25
2018-12-22T04:13:06.083Z,1.22
2018-12-22T04:16:12.843Z,1.30
2018-12-22T04:19:16.950Z,1.17
2018-12-22T04:22:20.049Z,1.20
2018-12-22T04:25:23.042Z,0.90
2018-12-22T04:28:26.092Z,1.07
2018-12-22T04:31:29.177Z,1.12
2018-12-22T04:34:32.429Z,1.17
2018-12-22T04:37:36.424Z,1.10
2018-12-22T04:40:39.432Z,1.20
2018-12-22T04:43:46.005Z,1.02
2018-12-22T04:46:49.024Z,1.07
2018-12-22T04:49:52.230Z,1.00
2018-12-22T04:52:55.471Z,1.00
2018-12-22T04:55:59.485Z,1.47
2018-12-22T04:59:02.550Z,1.00
2018-12-22T05:02:05.660Z,1.25
2018-12-22T05:05:08.648Z,1.12
2018-12-22T05:08:13.704Z,1.27
2018-12-22T05:11:16.958Z,1.20
2018-12-22T05:14:20.262Z,1.07
2018-12-22T05:17:23.203Z,1.22
2018-12-22T05:20:26.154Z,0.82
2018-12-22T05:23:29.303Z,1.20
2018-12-22T05:26:32.551Z,1.35
2018-12-22T05:29:35.652Z,1.20
2018-12-22T05:32:38.779Z,1.12
2018-12-22T05:35:41.945Z,1.07
2018-12-22T05:38:45.192Z,1.30
2018-12-22T05:41:48.267Z,1.17
2018-12-22T05:44:51.359Z,0.93
2018-12-22T05:47:54.607Z,1.05
2018-12-22T05:50:57.582Z,1.05
2018-12-22T05:54:00.533Z,1.25
2018-12-22T05:57:04.583Z,0.93
2018-12-22T06:00:08.515Z,1.07
2018-12-22T06:03:11.751Z,1.02
2018-12-22T06:06:14.860Z,1.10
2018-12-22T06:09:18.046Z,1.30
2018-12-22T06:12:21.155Z,0.90
2018-12-22T06:15:24.119Z,0.75
2018-12-22T06:21:41.399Z,1.20
2018-12-22T06:24:44.396Z,1.10
2018-12-22T06:27:47.370Z,1.25
2018-12-22T06:30:50.368Z,0.85
2018-12-22T06:33:54.230Z,0.72
2018-12-22T06:36:57.982Z,1.30
2018-12-22T06:40:01.388Z,0.90
2018-12-22T06:43:04.512Z,1.10
2018-12-22T06:46:07.791Z,0.98
2018-12-22T06:49:10.866Z,0.80
2018-12-22T06:52:14.352Z,0.80
2018-12-22T06:55:17.399Z,1.00
2018-12-22T06:58:20.791Z,1.00
2018-12-22T07:01:23.945Z,0.90
2018-12-22T07:04:27.171Z,0.90
2018-12-22T07:07:30.300Z,1.02
2018-12-22T07:10:33.596Z,0.70
2018-12-22T07:13:36.839Z,0.93
2018-12-22T07:16:39.969Z,1.05
2018-12-22T07:19:43.869Z,1.00
2018-12-22T07:22:47.004Z,0.90
2018-12-22T07:25:51.167Z,0.98
2018-12-22T07:28:55.313Z,0.68
2018-12-22T07:31:58.632Z,1.00
2018-12-22T07:35:01.742Z,0.68
2018-12-22T07:38:04.943Z,0.93
2018-12-22T07:41:08.132Z,0.88
2018-12-22T07:44:11.218Z,0.70
2018-12-22T07:47:14.502Z,0.80
2018-12-22T07:50:17.795Z,0.95
2018-12-22T07:53:21.079Z,0.85
2018-12-22T07:56:24.869Z,1.00
2018-12-22T07:59:28.093Z,0.80
2018-12-22T08:02:31.539Z,0.98
2018-12-22T08:05:38.877Z,1.00
2018-12-22T08:08:40.842Z,0.70
2018-12-22T08:11:44.763Z,1.00
2018-12-22T08:14:47.987Z,0.90
2018-12-22T08:17:51.171Z,0.65
2018-12-22T08:20:54.382Z,0.50
2018-12-22T08:23:57.505Z,0.80
2018-12-22T08:27:00.563Z,0.82
2018-12-22T08:30:03.596Z,0.80
2018-12-22T08:33:07.632Z,0.90
2018-12-22T08:36:10.990Z,0.80
2018-12-22T08:39:14.052Z,0.82
2018-12-22T08:42:17.138Z,0.82
2018-12-22T08:45:20.265Z,0.90
2018-12-22T08:48:23.466Z,0.72
2018-12-22T08:51:26.880Z,0.90
2018-12-22T08:54:29.958Z,1.00
2018-12-22T08:57:33.119Z,0.90
2018-12-22T09:00:36.178Z,0.90
2018-12-22T09:03:39.305Z,0.78
2018-12-22T09:06:43.534Z,0.90
2018-12-22T09:09:50.155Z,1.07
2018-12-22T09:12:53.410Z,0.90
2018-12-22T09:15:56.574Z,0.75
2018-12-22T09:18:59.704Z,0.98
2018-12-22T09:22:02.959Z,1.22
2018-12-22T09:25:07.408Z,1.22
2018-12-22T09:28:10.472Z,1.35
2018-12-22T09:31:13.685Z,1.00
2018-12-22T09:34:16.800Z,0.98
2018-12-22T09:37:19.880Z,1.07
2018-12-22T09:40:24.191Z,1.20
2018-12-22T09:43:27.383Z,0.93
2018-12-22T09:46:30.483Z,1.12
2018-12-22T09:49:33.580Z,0.85
2018-12-22T09:52:36.600Z,1.05
2018-12-22T09:55:39.839Z,1.10
2018-12-22T09:58:43.216Z,1.00
2018-12-22T10:01:46.325Z,1.00
2018-12-22T10:04:50.497Z,1.12
2018-12-22T10:07:53.511Z,1.32
2018-12-22T10:10:57.623Z,1.22
2018-12-22T10:14:00.671Z,1.00
2018-12-22T10:17:04.914Z,1.05
2018-12-22T10:20:09.023Z,1.22
2018-12-22T10:23:13.364Z,1.02
2018-12-22T10:26:16.565Z,1.10
2018-12-22T10:29:19.702Z,1.02
2018-12-22T10:32:22.791Z,1.72
2018-12-22T10:35:29.693Z,1.45
2018-12-22T10:38:33.899Z,1.60
2018-12-22T10:41:36.944Z,1.65
2018-12-22T10:44:40.018Z,1.00
2018-12-22T10:47:44.420Z,1.22
2018-12-22T10:50:48.552Z,1.50
2018-12-22T10:53:51.799Z,1.12
2018-12-22T10:56:54.984Z,1.60
2018-12-22T10:59:58.034Z,0.80
2018-12-22T11:03:02.215Z,1.12
2018-12-22T11:06:05.488Z,1.12
2018-12-22T11:09:11.854Z,1.07
2018-12-22T11:12:16.023Z,1.32
2018-12-22T11:15:19.291Z,1.20
2018-12-22T11:18:22.526Z,1.10
2018-12-22T11:21:27.003Z,1.00
2018-12-22T11:24:30.195Z,0.90
2018-12-22T11:27:33.323Z,1.25
2018-12-22T11:30:39.049Z,1.00
2018-12-22T11:33:42.068Z,0.93
2018-12-22T11:36:45.122Z,1.10
2018-12-22T11:39:48.208Z,1.02
2018-12-22T11:42:53.403Z,1.07
2018-12-22T11:45:57.534Z,0.85
2018-12-22T11:49:09.756Z,0.90
2018-12-22T11:52:12.880Z,1.00
2018-12-22T11:55:16.144Z,1.25
2018-12-22T11:58:23.233Z,0.85
2018-12-22T12:01:32.397Z,0.90
2018-12-22T12:04:38.133Z,0.80
2018-12-22T12:07:41.499Z,1.05
2018-12-22T12:10:47.800Z,0.95
2018-12-22T12:13:51.621Z,1.00
2018-12-22T12:17:03.306Z,0.60
2018-12-22T12:20:06.510Z,0.80
2018-12-22T12:23:09.689Z,0.98
2018-12-22T12:26:12.774Z,0.90
2018-12-22T12:29:16.808Z,0.70
2018-12-22T12:32:19.887Z,1.02
2018-12-22T12:35:22.983Z,1.22
2018-12-22T12:38:26.225Z,1.32
2018-12-22T12:41:31.502Z,0.88
2018-12-22T12:44:36.381Z,0.90
2018-12-22T12:47:45.554Z,1.10
2018-12-22T12:50:49.791Z,0.88
2018-12-22T12:53:54.883Z,0.70
2018-12-22T12:57:01.311Z,1.10
2018-12-22T13:00:04.488Z,0.95
2018-12-22T13:03:08.484Z,1.10
2018-12-22T13:06:11.724Z,0.93
2018-12-22T13:09:15.919Z,0.78
2018-12-22T13:12:23.835Z,1.27
2018-12-22T13:15:26.924Z,1.00
2018-12-22T13:18:31.211Z,0.78
2018-12-22T13:21:34.252Z,0.93
2018-12-22T13:24:37.312Z,0.90
2018-12-22T13:27:40.300Z,1.00
2018-12-22T13:30:43.363Z,0.88
2018-12-22T13:33:46.483Z,0.98
2018-12-22T13:36:51.732Z,1.02
2018-12-22T13:39:55.735Z,0.95
2018-12-22T13:42:58.931Z,1.07
2018-12-22T13:46:01.906Z,0.90
2018-12-22T13:49:05.083Z,0.72
2018-12-22T13:52:08.428Z,0.98
2018-12-22T13:55:12.414Z,0.80
2018-12-22T13:58:15.740Z,1.00
2018-12-22T14:01:22.181Z,0.98
2018-12-22T14:04:26.207Z,0.90
2018-12-22T14:07:29.288Z,0.75
2018-12-22T14:10:32.404Z,0.80
2018-12-22T14:13:37.628Z,0.70
2018-12-22T14:16:46.027Z,0.88
2018-12-22T14:19:53.655Z,0.65
2018-12-22T14:22:57.363Z,0.98
2018-12-22T14:26:02.111Z,0.95
2018-12-22T14:29:07.119Z,0.70
2018-12-22T14:32:11.315Z,0.70
2018-12-22T14:35:27.475Z,0.85
2018-12-22T14:38:36.472Z,0.80
2018-12-22T14:41:39.549Z,0.75
2018-12-22T14:44:42.619Z,0.70
2018-12-22T14:47:45.752Z,0.70
2018-12-22T14:50:48.844Z,1.00
2018-12-22T14:53:52.095Z,0.70
2018-12-22T14:56:55.367Z,0.50
2018-12-22T14:59:58.639Z,0.80
2018-12-22T15:03:01.610Z,0.53
2018-12-22T15:06:05.737Z,0.85
2018-12-22T15:09:13.232Z,0.82
2018-12-22T15:12:14.066Z,0.60
2018-12-22T15:15:18.454Z,0.85
2018-12-22T15:18:21.552Z,0.80
2018-12-22T15:21:24.543Z,0.72
2018-12-22T15:24:29.611Z,0.60
2018-12-22T15:27:32.799Z,0.68
2018-12-22T15:30:35.779Z,0.60
2018-12-22T15:33:38.876Z,0.90
2018-12-22T15:36:41.951Z,0.80
2018-12-22T15:39:45.052Z,0.60
2018-12-22T15:42:48.299Z,0.75
2018-12-22T15:45:51.551Z,0.60
2018-12-22T15:48:55.534Z,0.60
2018-12-22T15:51:59.755Z,0.72
2018-12-22T15:55:05.798Z,0.55
2018-12-22T15:58:09.006Z,0.80
2018-12-22T16:01:12.075Z,0.70
2018-12-22T16:04:15.105Z,0.70
2018-12-22T16:07:18.405Z,0.65
2018-12-22T16:10:21.591Z,0.72
2018-12-22T16:13:24.766Z,0.78
2018-12-22T16:16:28.037Z,0.80
2018-12-22T16:19:31.183Z,0.70
2018-12-22T16:22:34.179Z,0.70
2018-12-22T16:25:37.256Z,0.70
2018-12-22T16:28:45.931Z,0.70
2018-12-22T16:31:49.230Z,0.93
2018-12-22T16:34:52.499Z,0.70
2018-12-22T16:37:55.452Z,0.65
2018-12-22T16:40:58.786Z,0.78
2018-12-22T16:44:02.023Z,0.70
2018-12-22T16:47:06.164Z,0.70
2018-12-22T16:50:11.422Z,0.70
2018-12-22T16:53:14.393Z,0.70
2018-12-22T16:56:17.615Z,0.88
2018-12-22T16:59:20.673Z,0.70
2018-12-22T17:02:28.824Z,0.78
2018-12-22T17:05:31.902Z,0.62
2018-12-22T17:08:34.987Z,0.70
2018-12-22T17:11:38.092Z,0.60
2018-12-22T17:14:43.203Z,0.70
2018-12-22T17:17:46.295Z,0.70
2018-12-22T17:20:54.959Z,0.65
2018-12-22T17:24:05.358Z,0.68
2018-12-22T17:27:08.620Z,0.60
2018-12-22T17:30:11.768Z,0.70
2018-12-22T17:33:18.948Z,0.50
2018-12-22T17:36:23.034Z,0.60
2018-12-22T17:39:26.279Z,0.60
2018-12-22T17:42:29.358Z,0.47
2018-12-22T17:45:32.515Z,0.60
2018-12-22T17:48:35.803Z,0.53
2018-12-22T17:51:39.418Z,0.60
2018-12-22T17:54:42.449Z,0.60
2018-12-22T17:57:45.526Z,0.60
2018-12-22T18:00:48.659Z,0.70
2018-12-22T18:03:51.871Z,0.50
2018-12-22T18:06:55.007Z,0.88
2018-12-22T18:09:59.226Z,0.60
2018-12-22T18:13:02.232Z,0.70
2018-12-22T18:16:05.412Z,0.70
2018-12-22T18:19:10.455Z,0.90
2018-12-22T18:22:13.413Z,0.50
2018-12-22T18:25:17.484Z,0.57
2018-12-22T18:28:21.730Z,0.60
2018-12-22T18:31:24.986Z,0.80
2018-12-22T18:34:28.159Z,0.72
2018-12-22T18:37:31.435Z,0.80
2018-12-22T18:40:35.664Z,0.68
2018-12-22T18:43:38.743Z,0.70
2018-12-22T18:46:41.862Z,0.70
2018-12-22T18:49:44.937Z,0.60
2018-12-22T18:52:48.014Z,0.75
2018-12-22T18:55:51.142Z,0.72
2018-12-22T18:58:56.311Z,0.62
2018-12-22T19:01:59.275Z,0.78
2018-12-22T19:05:03.404Z,0.70
2018-12-22T19:08:11.639Z,0.68
2018-12-22T19:11:16.767Z,0.72
2018-12-22T19:14:19.979Z,0.85
2018-12-22T19:17:23.419Z,0.70
2018-12-22T19:20:35.578Z,0.50
2018-12-22T19:23:38.714Z,0.50
2018-12-22T19:26:41.803Z,0.40
2018-12-22T19:29:44.987Z,0.70
2018-12-22T19:32:47.993Z,0.60
2018-12-22T19:35:51.085Z,0.80
2018-12-22T19:38:55.387Z,0.60
2018-12-22T19:42:02.897Z,0.93
2018-12-22T19:45:07.066Z,0.62
2018-12-22T19:48:10.199Z,0.55
2018-12-22T19:51:13.292Z,0.50
2018-12-22T19:54:16.385Z,0.57
2018-12-22T19:57:19.477Z,0.68
2018-12-22T20:00:22.566Z,0.60
2018-12-22T20:03:26.703Z,0.80
2018-12-22T20:06:29.859Z,0.57
2018-12-22T20:09:32.863Z,0.62
2018-12-22T20:12:35.992Z,0.57
2018-12-22T20:15:39.215Z,0.50
2018-12-22T20:18:43.160Z,0.60
2018-12-22T20:21:46.371Z,0.70
2018-12-22T20:24:49.403Z,0.50
2018-12-22T20:27:52.456Z,0.60
2018-12-22T20:30:55.545Z,0.53
2018-12-22T20:33:58.735Z,0.80
2018-12-22T20:37:01.912Z,0.47
2018-12-22T20:40:06.913Z,0.60
2018-12-22T20:43:11.055Z,0.60
2018-12-22T20:46:14.161Z,0.60
2018-12-22T20:49:17.254Z,0.60
2018-12-22T20:52:20.272Z,0.78
2018-12-22T20:55:25.486Z,0.75
2018-12-22T20:58:30.856Z,0.55
2018-12-22T21:01:33.815Z,0.78
2018-12-22T21:04:37.023Z,0.70
2018-12-22T21:07:40.103Z,0.60
2018-12-22T21:10:43.268Z,0.60
2018-12-22T21:13:46.212Z,0.60
2018-12-22T21:16:49.291Z,0.68
2018-12-22T21:19:52.531Z,0.72
2018-12-22T21:22:56.483Z,0.60
2018-12-22T21:26:00.719Z,0.78
2018-12-22T21:29:03.654Z,0.60
2018-12-22T21:32:06.795Z,0.50
2018-12-22T21:35:09.880Z,0.40
2018-12-22T21:38:14.015Z,0.70
2018-12-22T21:41:18.107Z,0.57
2018-12-22T21:44:21.279Z,0.60
2018-12-22T21:47:24.283Z,0.47
2018-12-22T21:50:28.393Z,0.60
2018-12-22T21:53:31.506Z,0.50
2018-12-22T21:56:34.672Z,0.70
2018-12-22T21:59:37.767Z,0.60
2018-12-22T22:02:41.895Z,0.60
2018-12-22T22:05:44.903Z,0.80
2018-12-22T22:08:47.971Z,0.65
2018-12-22T22:11:51.252Z,0.78
2018-12-22T22:14:54.381Z,0.93
2018-12-22T22:17:57.632Z,0.70
2018-12-22T22:21:00.915Z,0.70
2018-12-22T22:24:03.925Z,0.70
2018-12-22T22:27:07.243Z,0.60
2018-12-22T22:30:11.415Z,0.68
2018-12-22T22:33:14.653Z,0.70
2018-12-22T22:36:18.885Z,0.65
2018-12-22T22:39:22.020Z,0.88
2018-12-22T22:42:25.055Z,0.60
2018-12-22T22:45:28.172Z,0.72
2018-12-22T22:48:31.391Z,0.65
2018-12-22T22:51:34.555Z,0.60
2018-12-22T22:54:38.655Z,0.70
2018-12-22T22:57:42.927Z,0.60
2018-12-22T23:00:46.615Z,0.57
2018-12-22T23:03:49.766Z,0.82
2018-12-22T23:06:53.898Z,0.47
2018-12-22T23:09:57.068Z,0.60
2018-12-22T23:16:12.980Z,0.42
2018-12-22T23:19:16.076Z,0.60
2018-12-22T23:22:19.139Z,0.70
2018-12-22T23:25:22.228Z,0.60
2018-12-22T23:28:25.350Z,0.55
2018-12-22T23:31:28.435Z,0.60
2018-12-22T23:34:31.543Z,0.60
2018-12-22T23:37:34.582Z,0.65
2018-12-22T23:40:38.127Z,0.57
2018-12-22T23:43:43.408Z,0.70
2018-12-22T23:46:46.698Z,0.68
2018-12-22T23:49:50.899Z,0.57
2018-12-22T23:52:54.489Z,0.60
2018-12-22T23:55:57.625Z,0.65
2018-12-22T23:59:00.944Z,0.60
